ADDS METAR Data INFO
IDs: Format: Raw Decoded Include TAF

Data at: 2323 UTC 19 Oct 2017

KBML 192252Z AUTO 20008KT 10SM CLR 19/02 A2988 RMK AO2 SLP124 T01890017
KBML 192152Z AUTO 23004KT 10SM CLR 20/00 A2988 RMK AO2 SLP123 T02000000
KBML 192052Z AUTO 21006KT 10SM CLR 21/01 A2988 RMK AO2 SLP122 T02110006 56027
KBML 191952Z AUTO 22014G20KT 10SM CLR 23/M01 A2989 RMK AO2 SLP127 T02281006
KBML 191852Z AUTO 25009G24KT 10SM CLR 24/00 A2992 RMK AO2 SLP135 T02390000
KBML 191752Z AUTO 23010G23KT 10SM CLR 23/01 A2996 RMK AO2 SLP150 T02330011 10233 21011 56038
KBML 191652Z AUTO 22011G17KT 10SM CLR 22/02 A3000 RMK AO2 SLP164 T02220022
KBML 191552Z AUTO 23008G19KT 10SM CLR 22/02 A3003 RMK AO2 SLP175 T02170017
KBML 191452Z AUTO 01003KT 10SM CLR 13/06 A3008 RMK AO2 SLP193 T01330056 58024
KBML 191352Z AUTO 00000KT 10SM CLR 07/04 A3011 RMK AO2 SLP207 T00720039
KBML 191252Z AUTO 00000KT 10SM CLR 01/01 A3013 RMK AO2 SLP216 T00110011
KBML 191217Z AUTO 00000KT 3SM BR SCT001 00/00 A3015 RMK AO2 T00000000
KBML 191210Z AUTO 00000KT 1 1/2SM BR SCT001 00/00 A3015 RMK AO2 VIS 3/4V4 T00000000
KBML 191208Z AUTO 00000KT 1SM BR VV001 00/00 A3015 RMK AO2 VIS 1/4V4 T00000000
KBML 191152Z AUTO 00000KT M1/4SM FZFG VV001 M01/M01 A3015 RMK AO2 SLP223 I6000 T10111011 11006 21017 57011
KBML 191052Z AUTO 00000KT 1/4SM FZFG VV001 M02/M02 A3016 RMK AO2 SLP225 I1000 T10171017
KBML 190952Z AUTO 00000KT 1/4SM FZFG VV001 M01/M01 A3018 RMK AO2 SLP229 I1000 T10111011
KBML 190946Z AUTO 00000KT 1SM BR VV001 M02/M02 A3018 RMK AO2 I1000
KBML 190852Z AUTO 00000KT 1/4SM FZFG VV001 M01/M01 A3019 RMK AO2 SLP230 I1000 I3000 T10111011 58010
KBML 190752Z AUTO 00000KT 1/4SM FZFG VV001 M01/M01 A3020 RMK AO2 SLP232 I1000 T10111011
KBML 190732Z AUTO 00000KT 1/4SM FZFG VV001 M01/M01 A3020 RMK AO2 I1000 T10111011
KBML 190724Z AUTO 00000KT 1/2SM FZFG VV001 M02/M02 A3020 RMK AO2 T10171017
KBML 190714Z AUTO 00000KT 1/4SM FZFG VV001 M01/M01 A3021 RMK AO2 T10111011
KBML 190652Z AUTO 00000KT 3/4SM BR VV001 M02/M02 A3021 RMK AO2 SLP239 I1000 T10171017
KBML 190649Z AUTO 00000KT 1 3/4SM BR OVC001 M01/M02 A3021 RMK AO2 VIS 1/2V5 I1000
KBML 190552Z AUTO 00000KT 10SM BKN001 M01/M02 A3022 RMK AO2 SLP240 T10111017 10061 21017 58005
KBML 190540Z AUTO 00000KT 10SM BKN001 M01/M02 A3022 RMK AO2 T10061017
KBML 190500Z AUTO 00000KT 10SM FEW001 M01/M01 A3022 RMK AO2 T10111011
KBML 190452Z AUTO 00000KT 10SM CLR M01/M01 A3023 RMK AO2 SLP242 T10061011 401891011
KBML 190425Z AUTO 00000KT 10SM FEW001 00/M01 A3023 RMK AO2 T00001006
KBML 190352Z AUTO 00000KT 10SM CLR M01/M01 A3023 RMK AO2 SLP244 T10061011
KBML 190252Z AUTO 00000KT 10SM CLR 01/01 A3023 RMK AO2 SLP246 T00110006 58000
KBML 190152Z AUTO 00000KT 10SM CLR 02/01 A3024 RMK AO2 SLP250 T00220011
KBML 190052Z AUTO 00000KT 10SM CLR 04/03 A3024 RMK AO2 SLP249 T00390028
KBML 182352Z AUTO 00000KT 10SM CLR 06/04 A3024 RMK AO2 SLP250 T00610039 10189 20056 53014
KBML 182252Z AUTO 00000KT 10SM CLR 07/05 A3022 RMK AO2 SLP247 T00670050
KBML 182152Z AUTO 00000KT 10SM CLR 13/06 A3020 RMK AO2 SLP236 T01280061
KBML 182052Z AUTO 29005KT 10SM CLR 18/03 A3019 RMK AO2 SLP230 T01780028 55001
KBML 181952Z AUTO VRB03KT 10SM CLR 19/03 A3019 RMK AO2 SLP229 T01890028
KBML 181852Z AUTO 30007KT 10SM CLR 18/01 A3019 RMK AO2 SLP228 T01830011
KBML 181752Z AUTO 28010G17KT 250V340 10SM CLR 18/02 A3020 RMK AO2 SLP228 T01830017 10183 20017 58003
KBML 181652Z AUTO 29008KT 10SM CLR 18/03 A3020 RMK AO2 SLP230 T01780033
KBML 181552Z AUTO 27009G16KT 10SM CLR 16/05 A3020 RMK AO2 SLP231 T01610050
KBML 181452Z AUTO 29008KT 10SM CLR 15/06 A3021 RMK AO2 SLP233 T01500061 51015
KBML 181352Z AUTO 11005KT 10SM CLR 09/05 A3020 RMK AO2 SLP238 T00940050
KBML 181252Z AUTO 00000KT 10SM CLR 08/03 A3018 RMK AO2 SLP232 T00780033
KBML 181152Z AUTO 00000KT 10SM CLR 02/01 A3016 RMK AO2 SLP228 T00170006 10100 21006 51021